sensor_id;sensor_type;location;lat;lon;timestamp;temperature;humidity
15131;DHT22;7666;50.920;4.628;2022-12-29T00:02:39;11.90;99.90
15131;DHT22;7666;50.920;4.628;2022-12-29T00:05:25;11.90;99.90
15131;DHT22;7666;50.920;4.628;2022-12-29T00:08:11;11.90;99.90
15131;DHT22;7666;50.920;4.628;2022-12-29T00:10:57;11.90;99.90
15131;DHT22;7666;50.920;4.628;2022-12-29T00:13:47;11.90;99.90
15131;DHT22;7666;50.920;4.628;2022-12-29T00:16:51;11.90;99.90
15131;DHT22;7666;50.920;4.628;2022-12-29T00:19:37;11.80;99.90
15131;DHT22;7666;50.920;4.628;2022-12-29T00:22:42;11.80;99.90
15131;DHT22;7666;50.920;4.628;2022-12-29T00:25:47;11.90;99.90
15131;DHT22;7666;50.920;4.628;2022-12-29T00:28:51;11.90;99.90
15131;DHT22;7666;50.920;4.628;2022-12-29T00:31:56;11.90;99.90
15131;DHT22;7666;50.920;4.628;2022-12-29T00:35:00;11.90;99.90
15131;DHT22;7666;50.920;4.628;2022-12-29T00:37:57;11.90;99.90
15131;DHT22;7666;50.920;4.628;2022-12-29T00:41:02;11.90;99.90
15131;DHT22;7666;50.920;4.628;2022-12-29T00:44:07;11.90;99.90
15131;DHT22;7666;50.920;4.628;2022-12-29T00:46:55;11.90;99.90
15131;DHT22;7666;50.920;4.628;2022-12-29T00:49:41;11.90;99.90
15131;DHT22;7666;50.920;4.628;2022-12-29T00:52:27;12.00;99.90
15131;DHT22;7666;50.920;4.628;2022-12-29T00:55:13;12.00;99.90
15131;DHT22;7666;50.920;4.628;2022-12-29T00:57:59;12.00;99.90
15131;DHT22;7666;50.920;4.628;2022-12-29T01:00:45;12.00;99.90
15131;DHT22;7666;50.920;4.628;2022-12-29T01:03:32;12.00;99.90
15131;DHT22;7666;50.920;4.628;2022-12-29T01:06:18;12.10;99.90
15131;DHT22;7666;50.920;4.628;2022-12-29T01:09:06;12.00;99.90
15131;DHT22;7666;50.920;4.628;2022-12-29T01:12:11;12.10;99.90
15131;DHT22;7666;50.920;4.628;2022-12-29T01:14:57;12.10;99.90
15131;DHT22;7666;50.920;4.628;2022-12-29T01:17:43;12.10;99.90
15131;DHT22;7666;50.920;4.628;2022-12-29T01:20:29;12.10;99.90
15131;DHT22;7666;50.920;4.628;2022-12-29T01:23:15;12.00;99.90
15131;DHT22;7666;50.920;4.628;2022-12-29T01:26:14;12.00;99.90
15131;DHT22;7666;50.920;4.628;2022-12-29T01:29:01;12.00;99.90
15131;DHT22;7666;50.920;4.628;2022-12-29T01:31:47;11.90;99.90
15131;DHT22;7666;50.920;4.628;2022-12-29T01:34:35;11.80;99.90
15131;DHT22;7666;50.920;4.628;2022-12-29T01:37:21;11.80;99.90
15131;DHT22;7666;50.920;4.628;2022-12-29T01:40:07;11.70;99.90
15131;DHT22;7666;50.920;4.628;2022-12-29T01:42:53;11.70;99.90
15131;DHT22;7666;50.920;4.628;2022-12-29T01:45:44;11.60;99.90
15131;DHT22;7666;50.920;4.628;2022-12-29T01:48:31;11.60;99.90
15131;DHT22;7666;50.920;4.628;2022-12-29T01:51:17;11.50;99.90
15131;DHT22;7666;50.920;4.628;2022-12-29T01:54:05;11.50;99.90
15131;DHT22;7666;50.920;4.628;2022-12-29T01:56:56;11.50;99.90
15131;DHT22;7666;50.920;4.628;2022-12-29T01:59:54;11.50;99.90
15131;DHT22;7666;50.920;4.628;2022-12-29T02:02:49;11.40;99.90
15131;DHT22;7666;50.920;4.628;2022-12-29T02:05:45;11.40;99.90
15131;DHT22;7666;50.920;4.628;2022-12-29T02:08:32;11.40;99.90
15131;DHT22;7666;50.920;4.628;2022-12-29T02:11:19;11.40;99.90
15131;DHT22;7666;50.920;4.628;2022-12-29T02:14:11;11.30;99.90
15131;DHT22;7666;50.920;4.628;2022-12-29T02:30:15;11.10;99.90
15131;DHT22;7666;50.920;4.628;2022-12-29T02:33:09;11.00;99.90
15131;DHT22;7666;50.920;4.628;2022-12-29T02:39:29;10.80;99.90
15131;DHT22;7666;50.920;4.628;2022-12-29T02:42:43;10.80;99.90
15131;DHT22;7666;50.920;4.628;2022-12-29T02:48:52;10.60;99.90
15131;DHT22;7666;50.920;4.628;2022-12-29T02:51:51;10.60;99.90
15131;DHT22;7666;50.920;4.628;2022-12-29T02:54:38;10.60;99.90
15131;DHT22;7666;50.920;4.628;2022-12-29T02:57:36;10.50;99.90
15131;DHT22;7666;50.920;4.628;2022-12-29T03:00:22;10.40;99.90
15131;DHT22;7666;50.920;4.628;2022-12-29T03:09:17;10.50;99.90
15131;DHT22;7666;50.920;4.628;2022-12-29T03:15:44;10.40;99.90
15131;DHT22;7666;50.920;4.628;2022-12-29T03:18:57;10.40;99.90
15131;DHT22;7666;50.920;4.628;2022-12-29T03:21:50;10.40;99.90
15131;DHT22;7666;50.920;4.628;2022-12-29T03:25:00;10.30;99.90
15131;DHT22;7666;50.920;4.628;2022-12-29T03:27:51;10.20;99.90
15131;DHT22;7666;50.920;4.628;2022-12-29T03:30:40;10.10;99.90
15131;DHT22;7666;50.920;4.628;2022-12-29T03:33:28;10.00;99.90
15131;DHT22;7666;50.920;4.628;2022-12-29T03:36:26;10.00;99.90
15131;DHT22;7666;50.920;4.628;2022-12-29T03:39:13;10.00;99.90
15131;DHT22;7666;50.920;4.628;2022-12-29T03:42:02;10.00;99.90
15131;DHT22;7666;50.920;4.628;2022-12-29T03:44:54;10.10;99.90
15131;DHT22;7666;50.920;4.628;2022-12-29T03:47:41;10.10;99.90
15131;DHT22;7666;50.920;4.628;2022-12-29T03:50:27;10.20;99.90
15131;DHT22;7666;50.920;4.628;2022-12-29T03:53:13;10.20;99.90
15131;DHT22;7666;50.920;4.628;2022-12-29T03:55:59;10.20;99.90
15131;DHT22;7666;50.920;4.628;2022-12-29T03:58:45;10.20;99.90
15131;DHT22;7666;50.920;4.628;2022-12-29T04:01:31;10.20;99.90
15131;DHT22;7666;50.920;4.628;2022-12-29T04:04:17;10.20;99.90
15131;DHT22;7666;50.920;4.628;2022-12-29T04:07:03;10.30;99.90
15131;DHT22;7666;50.920;4.628;2022-12-29T04:09:49;10.30;99.90
15131;DHT22;7666;50.920;4.628;2022-12-29T04:12:35;10.30;99.90
15131;DHT22;7666;50.920;4.628;2022-12-29T04:15:21;10.40;99.90
15131;DHT22;7666;50.920;4.628;2022-12-29T04:18:07;10.30;99.90
15131;DHT22;7666;50.920;4.628;2022-12-29T04:20:53;10.30;99.90
15131;DHT22;7666;50.920;4.628;2022-12-29T04:23:51;10.30;99.90
15131;DHT22;7666;50.920;4.628;2022-12-29T04:26:37;10.30;99.90
15131;DHT22;7666;50.920;4.628;2022-12-29T04:29:23;10.20;99.90
15131;DHT22;7666;50.920;4.628;2022-12-29T04:32:09;10.20;99.90
15131;DHT22;7666;50.920;4.628;2022-12-29T04:34:55;10.10;99.90
15131;DHT22;7666;50.920;4.628;2022-12-29T04:37:41;10.10;99.90
15131;DHT22;7666;50.920;4.628;2022-12-29T04:40:27;10.10;99.90
15131;DHT22;7666;50.920;4.628;2022-12-29T04:43:13;10.10;99.90
15131;DHT22;7666;50.920;4.628;2022-12-29T04:45:59;10.10;99.90
15131;DHT22;7666;50.920;4.628;2022-12-29T04:48:45;10.10;99.90
15131;DHT22;7666;50.920;4.628;2022-12-29T04:51:31;10.10;99.90
15131;DHT22;7666;50.920;4.628;2022-12-29T04:54:17;10.10;99.90
15131;DHT22;7666;50.920;4.628;2022-12-29T04:57:03;10.20;99.90
15131;DHT22;7666;50.920;4.628;2022-12-29T04:59:49;10.30;99.90
15131;DHT22;7666;50.920;4.628;2022-12-29T05:02:36;10.30;99.90
15131;DHT22;7666;50.920;4.628;2022-12-29T05:05:22;10.40;99.90
15131;DHT22;7666;50.920;4.628;2022-12-29T05:08:09;10.40;99.90
15131;DHT22;7666;50.920;4.628;2022-12-29T05:10:54;10.50;99.90
15131;DHT22;7666;50.920;4.628;2022-12-29T05:13:40;10.50;99.90
15131;DHT22;7666;50.920;4.628;2022-12-29T05:16:26;10.50;99.90
15131;DHT22;7666;50.920;4.628;2022-12-29T05:19:13;10.50;99.90
15131;DHT22;7666;50.920;4.628;2022-12-29T05:21:59;10.50;99.90
15131;DHT22;7666;50.920;4.628;2022-12-29T05:24:45;10.50;99.90
15131;DHT22;7666;50.920;4.628;2022-12-29T05:27:31;10.50;99.90
15131;DHT22;7666;50.920;4.628;2022-12-29T05:30:17;10.50;99.90
15131;DHT22;7666;50.920;4.628;2022-12-29T05:33:03;10.50;99.90
15131;DHT22;7666;50.920;4.628;2022-12-29T05:35:52;10.50;99.90
15131;DHT22;7666;50.920;4.628;2022-12-29T05:38:38;10.60;99.90
15131;DHT22;7666;50.920;4.628;2022-12-29T05:41:23;10.60;99.90
15131;DHT22;7666;50.920;4.628;2022-12-29T05:44:10;10.60;99.90
15131;DHT22;7666;50.920;4.628;2022-12-29T05:46:57;10.60;99.90
15131;DHT22;7666;50.920;4.628;2022-12-29T05:49:43;10.70;99.90
15131;DHT22;7666;50.920;4.628;2022-12-29T05:52:28;10.70;99.90
15131;DHT22;7666;50.920;4.628;2022-12-29T05:55:15;10.70;99.90
15131;DHT22;7666;50.920;4.628;2022-12-29T05:58:01;10.70;99.90
15131;DHT22;7666;50.920;4.628;2022-12-29T06:00:47;10.70;99.90
15131;DHT22;7666;50.920;4.628;2022-12-29T06:03:33;10.70;99.90
15131;DHT22;7666;50.920;4.628;2022-12-29T06:06:19;10.70;99.90
15131;DHT22;7666;50.920;4.628;2022-12-29T06:09:05;10.70;99.90
15131;DHT22;7666;50.920;4.628;2022-12-29T06:11:50;10.60;99.90
15131;DHT22;7666;50.920;4.628;2022-12-29T06:14:36;10.70;99.90
15131;DHT22;7666;50.920;4.628;2022-12-29T06:17:22;10.60;99.90
15131;DHT22;7666;50.920;4.628;2022-12-29T06:20:09;10.60;99.90
15131;DHT22;7666;50.920;4.628;2022-12-29T06:22:56;10.60;99.90
15131;DHT22;7666;50.920;4.628;2022-12-29T06:25:42;10.60;99.90
15131;DHT22;7666;50.920;4.628;2022-12-29T06:28:27;10.60;99.90
15131;DHT22;7666;50.920;4.628;2022-12-29T06:31:13;10.50;99.90
15131;DHT22;7666;50.920;4.628;2022-12-29T06:33:59;10.50;99.90
15131;DHT22;7666;50.920;4.628;2022-12-29T06:36:45;10.50;99.90
15131;DHT22;7666;50.920;4.628;2022-12-29T06:39:31;10.50;99.90
15131;DHT22;7666;50.920;4.628;2022-12-29T06:42:17;10.50;99.90
15131;DHT22;7666;50.920;4.628;2022-12-29T06:45:04;10.50;99.90
15131;DHT22;7666;50.920;4.628;2022-12-29T06:47:50;10.50;99.90
15131;DHT22;7666;50.920;4.628;2022-12-29T06:50:36;10.50;99.90
15131;DHT22;7666;50.920;4.628;2022-12-29T06:53:22;10.60;99.90
15131;DHT22;7666;50.920;4.628;2022-12-29T06:56:08;10.60;99.90
15131;DHT22;7666;50.920;4.628;2022-12-29T06:58:54;10.60;99.90
15131;DHT22;7666;50.920;4.628;2022-12-29T07:01:40;10.70;99.90
15131;DHT22;7666;50.920;4.628;2022-12-29T07:04:26;10.70;99.90
15131;DHT22;7666;50.920;4.628;2022-12-29T07:07:12;10.80;99.90
15131;DHT22;7666;50.920;4.628;2022-12-29T07:09:58;10.70;99.90
15131;DHT22;7666;50.920;4.628;2022-12-29T07:12:44;10.70;99.90
15131;DHT22;7666;50.920;4.628;2022-12-29T07:15:30;10.70;99.90
15131;DHT22;7666;50.920;4.628;2022-12-29T07:18:16;10.70;99.90
15131;DHT22;7666;50.920;4.628;2022-12-29T07:21:02;10.70;99.90
15131;DHT22;7666;50.920;4.628;2022-12-29T07:23:48;10.70;99.90
15131;DHT22;7666;50.920;4.628;2022-12-29T07:26:34;10.70;99.90
15131;DHT22;7666;50.920;4.628;2022-12-29T07:29:21;10.60;99.90
15131;DHT22;7666;50.920;4.628;2022-12-29T07:32:08;10.60;99.90
15131;DHT22;7666;50.920;4.628;2022-12-29T07:34:54;10.60;99.90
15131;DHT22;7666;50.920;4.628;2022-12-29T07:37:39;10.60;99.90
15131;DHT22;7666;50.920;4.628;2022-12-29T07:40:25;10.70;99.90
15131;DHT22;7666;50.920;4.628;2022-12-29T07:43:11;10.70;99.90
15131;DHT22;7666;50.920;4.628;2022-12-29T07:45:57;10.70;99.90
15131;DHT22;7666;50.920;4.628;2022-12-29T07:48:43;10.80;99.90
15131;DHT22;7666;50.920;4.628;2022-12-29T07:51:29;10.70;99.90
15131;DHT22;7666;50.920;4.628;2022-12-29T07:54:15;10.80;99.90
15131;DHT22;7666;50.920;4.628;2022-12-29T07:57:04;10.80;99.90
15131;DHT22;7666;50.920;4.628;2022-12-29T07:59:50;10.70;99.90
15131;DHT22;7666;50.920;4.628;2022-12-29T08:02:36;10.70;99.90
15131;DHT22;7666;50.920;4.628;2022-12-29T08:05:22;10.70;99.90
15131;DHT22;7666;50.920;4.628;2022-12-29T08:08:08;10.70;99.90
15131;DHT22;7666;50.920;4.628;2022-12-29T08:10:54;10.70;99.90
15131;DHT22;7666;50.920;4.628;2022-12-29T08:13:40;10.70;99.90
15131;DHT22;7666;50.920;4.628;2022-12-29T08:16:26;10.80;99.90
15131;DHT22;7666;50.920;4.628;2022-12-29T08:19:12;10.90;99.90
15131;DHT22;7666;50.920;4.628;2022-12-29T08:21:58;10.90;99.90
15131;DHT22;7666;50.920;4.628;2022-12-29T08:24:44;10.80;99.90
15131;DHT22;7666;50.920;4.628;2022-12-29T08:27:30;10.80;99.90
15131;DHT22;7666;50.920;4.628;2022-12-29T08:30:16;10.90;99.90
15131;DHT22;7666;50.920;4.628;2022-12-29T08:33:02;10.80;99.90
15131;DHT22;7666;50.920;4.628;2022-12-29T08:35:48;10.80;99.90
15131;DHT22;7666;50.920;4.628;2022-12-29T08:38:34;11.00;99.90
15131;DHT22;7666;50.920;4.628;2022-12-29T08:41:20;11.10;99.90
15131;DHT22;7666;50.920;4.628;2022-12-29T08:44:06;11.00;99.90
15131;DHT22;7666;50.920;4.628;2022-12-29T08:46:52;10.90;99.90
15131;DHT22;7666;50.920;4.628;2022-12-29T08:49:38;10.90;99.90
15131;DHT22;7666;50.920;4.628;2022-12-29T08:52:24;10.90;99.90
15131;DHT22;7666;50.920;4.628;2022-12-29T08:55:10;10.90;99.90
15131;DHT22;7666;50.920;4.628;2022-12-29T08:57:56;10.80;99.90
15131;DHT22;7666;50.920;4.628;2022-12-29T09:00:43;10.90;99.90
15131;DHT22;7666;50.920;4.628;2022-12-29T09:03:29;11.00;99.90
15131;DHT22;7666;50.920;4.628;2022-12-29T09:06:17;11.00;99.90
15131;DHT22;7666;50.920;4.628;2022-12-29T09:09:03;11.00;99.90
15131;DHT22;7666;50.920;4.628;2022-12-29T09:11:49;11.00;99.90
15131;DHT22;7666;50.920;4.628;2022-12-29T09:14:35;11.00;99.90
15131;DHT22;7666;50.920;4.628;2022-12-29T09:17:21;11.00;99.90
15131;DHT22;7666;50.920;4.628;2022-12-29T09:20:25;11.00;99.90
15131;DHT22;7666;50.920;4.628;2022-12-29T09:23:11;11.00;99.90
15131;DHT22;7666;50.920;4.628;2022-12-29T09:25:57;11.00;99.90
15131;DHT22;7666;50.920;4.628;2022-12-29T09:28:43;11.10;99.90
15131;DHT22;7666;50.920;4.628;2022-12-29T09:31:32;11.10;99.90
15131;DHT22;7666;50.920;4.628;2022-12-29T09:34:18;11.10;99.90
15131;DHT22;7666;50.920;4.628;2022-12-29T09:37:04;11.10;99.90
15131;DHT22;7666;50.920;4.628;2022-12-29T09:39:50;11.10;99.90
15131;DHT22;7666;50.920;4.628;2022-12-29T09:43:05;11.10;99.90
15131;DHT22;7666;50.920;4.628;2022-12-29T09:52:14;11.00;99.90
15131;DHT22;7666;50.920;4.628;2022-12-29T09:55:10;11.00;99.90
15131;DHT22;7666;50.920;4.628;2022-12-29T09:58:04;11.10;99.90
15131;DHT22;7666;50.920;4.628;2022-12-29T10:01:01;11.10;99.90
15131;DHT22;7666;50.920;4.628;2022-12-29T10:03:52;11.00;99.90
15131;DHT22;7666;50.920;4.628;2022-12-29T10:06:59;11.10;99.90
15131;DHT22;7666;50.920;4.628;2022-12-29T10:09:56;11.10;99.90
15131;DHT22;7666;50.920;4.628;2022-12-29T10:16:13;11.30;99.90
15131;DHT22;7666;50.920;4.628;2022-12-29T10:19:23;11.40;99.90
15131;DHT22;7666;50.920;4.628;2022-12-29T10:25:20;11.30;99.90
15131;DHT22;7666;50.920;4.628;2022-12-29T10:28:22;11.20;99.90
15131;DHT22;7666;50.920;4.628;2022-12-29T10:31:39;11.30;99.90
15131;DHT22;7666;50.920;4.628;2022-12-29T10:34:30;11.30;99.90
15131;DHT22;7666;50.920;4.628;2022-12-29T10:38:21;11.40;99.90
15131;DHT22;7666;50.920;4.628;2022-12-29T10:41:05;11.50;99.90
15131;DHT22;7666;50.920;4.628;2022-12-29T10:43:56;11.50;99.90
15131;DHT22;7666;50.920;4.628;2022-12-29T10:46:43;11.50;99.90
15131;DHT22;7666;50.920;4.628;2022-12-29T10:49:30;11.40;99.90
15131;DHT22;7666;50.920;4.628;2022-12-29T10:52:19;11.50;99.90
15131;DHT22;7666;50.920;4.628;2022-12-29T10:55:15;11.50;99.90
15131;DHT22;7666;50.920;4.628;2022-12-29T10:58:06;11.60;99.90
15131;DHT22;7666;50.920;4.628;2022-12-29T11:00:53;11.60;99.90
15131;DHT22;7666;50.920;4.628;2022-12-29T11:07:17;11.50;99.90
15131;DHT22;7666;50.920;4.628;2022-12-29T11:10:37;11.50;99.90
15131;DHT22;7666;50.920;4.628;2022-12-29T11:13:26;11.60;99.90
15131;DHT22;7666;50.920;4.628;2022-12-29T11:16:13;11.60;99.90
15131;DHT22;7666;50.920;4.628;2022-12-29T11:18:59;11.70;99.90
15131;DHT22;7666;50.920;4.628;2022-12-29T11:21:45;11.70;99.90
15131;DHT22;7666;50.920;4.628;2022-12-29T11:24:31;11.70;99.90
15131;DHT22;7666;50.920;4.628;2022-12-29T11:30:23;11.90;99.90
15131;DHT22;7666;50.920;4.628;2022-12-29T11:33:09;12.00;99.90
15131;DHT22;7666;50.920;4.628;2022-12-29T11:36:05;12.10;99.90
15131;DHT22;7666;50.920;4.628;2022-12-29T11:38:54;12.30;99.90
15131;DHT22;7666;50.920;4.628;2022-12-29T11:41:40;12.30;99.90
15131;DHT22;7666;50.920;4.628;2022-12-29T11:44:26;12.30;99.90
15131;DHT22;7666;50.920;4.628;2022-12-29T11:47:25;12.20;99.90
15131;DHT22;7666;50.920;4.628;2022-12-29T11:50:24;12.00;99.90
15131;DHT22;7666;50.920;4.628;2022-12-29T11:53:17;11.70;99.90
15131;DHT22;7666;50.920;4.628;2022-12-29T11:56:08;11.50;99.90
15131;DHT22;7666;50.920;4.628;2022-12-29T11:58:56;11.30;99.90
15131;DHT22;7666;50.920;4.628;2022-12-29T12:01:42;11.20;99.90
15131;DHT22;7666;50.920;4.628;2022-12-29T12:04:35;11.10;99.90
15131;DHT22;7666;50.920;4.628;2022-12-29T12:10:23;11.00;99.90
15131;DHT22;7666;50.920;4.628;2022-12-29T12:13:27;10.90;99.90
15131;DHT22;7666;50.920;4.628;2022-12-29T12:16:17;10.90;99.90
15131;DHT22;7666;50.920;4.628;2022-12-29T12:25:13;11.00;99.90
15131;DHT22;7666;50.920;4.628;2022-12-29T12:28:20;10.90;99.90
15131;DHT22;7666;50.920;4.628;2022-12-29T12:31:17;10.90;99.90
15131;DHT22;7666;50.920;4.628;2022-12-29T12:34:09;11.00;99.90
15131;DHT22;7666;50.920;4.628;2022-12-29T12:37:13;10.90;99.90
15131;DHT22;7666;50.920;4.628;2022-12-29T12:43:39;10.80;99.90
15131;DHT22;7666;50.920;4.628;2022-12-29T12:55:28;10.80;99.90
15131;DHT22;7666;50.920;4.628;2022-12-29T12:58:25;10.90;99.90
15131;DHT22;7666;50.920;4.628;2022-12-29T13:04:37;11.00;99.90
15131;DHT22;7666;50.920;4.628;2022-12-29T13:10:56;11.00;99.90
15131;DHT22;7666;50.920;4.628;2022-12-29T13:20:06;10.90;99.90
15131;DHT22;7666;50.920;4.628;2022-12-29T13:29:06;10.90;99.90
15131;DHT22;7666;50.920;4.628;2022-12-29T13:32:20;10.90;99.90
15131;DHT22;7666;50.920;4.628;2022-12-29T13:38:20;11.00;99.90
15131;DHT22;7666;50.920;4.628;2022-12-29T13:41:27;11.00;99.90
15131;DHT22;7666;50.920;4.628;2022-12-29T13:44:21;11.10;99.90
15131;DHT22;7666;50.920;4.628;2022-12-29T13:50:16;11.10;99.90
15131;DHT22;7666;50.920;4.628;2022-12-29T13:56:49;11.10;99.90
15131;DHT22;7666;50.920;4.628;2022-12-29T14:00:16;11.10;99.90
15131;DHT22;7666;50.920;4.628;2022-12-29T14:03:17;11.10;99.90
15131;DHT22;7666;50.920;4.628;2022-12-29T14:09:02;11.00;99.90
15131;DHT22;7666;50.920;4.628;2022-12-29T14:11:48;10.90;99.90
15131;DHT22;7666;50.920;4.628;2022-12-29T14:14:37;10.90;99.90
15131;DHT22;7666;50.920;4.628;2022-12-29T14:17:23;10.80;99.90
15131;DHT22;7666;50.920;4.628;2022-12-29T14:20:20;10.80;99.90
15131;DHT22;7666;50.920;4.628;2022-12-29T14:28:51;10.70;99.90
15131;DHT22;7666;50.920;4.628;2022-12-29T14:31:37;10.70;99.90
15131;DHT22;7666;50.920;4.628;2022-12-29T14:34:36;10.70;99.90
15131;DHT22;7666;50.920;4.628;2022-12-29T14:37:30;10.70;99.90
15131;DHT22;7666;50.920;4.628;2022-12-29T14:40:24;10.70;99.90
15131;DHT22;7666;50.920;4.628;2022-12-29T14:43:16;10.70;99.90
15131;DHT22;7666;50.920;4.628;2022-12-29T14:46:07;10.70;99.90
15131;DHT22;7666;50.920;4.628;2022-12-29T14:48:58;10.70;99.90
15131;DHT22;7666;50.920;4.628;2022-12-29T14:51:47;10.70;99.90
15131;DHT22;7666;50.920;4.628;2022-12-29T14:54:42;10.70;99.90
15131;DHT22;7666;50.920;4.628;2022-12-29T14:57:39;10.70;99.90
15131;DHT22;7666;50.920;4.628;2022-12-29T15:00:30;10.30;99.90
15131;DHT22;7666;50.920;4.628;2022-12-29T15:03:30;10.10;99.90
15131;DHT22;7666;50.920;4.628;2022-12-29T15:06:18;9.70;99.90
15131;DHT22;7666;50.920;4.628;2022-12-29T15:15:00;9.00;99.90
15131;DHT22;7666;50.920;4.628;2022-12-29T15:17:47;8.90;99.90
15131;DHT22;7666;50.920;4.628;2022-12-29T15:20:33;8.80;99.90
15131;DHT22;7666;50.920;4.628;2022-12-29T15:23:19;8.80;99.90
15131;DHT22;7666;50.920;4.628;2022-12-29T15:26:07;8.80;99.90
15131;DHT22;7666;50.920;4.628;2022-12-29T15:28:53;8.70;99.90
15131;DHT22;7666;50.920;4.628;2022-12-29T15:31:46;8.60;99.90
15131;DHT22;7666;50.920;4.628;2022-12-29T15:34:33;8.60;99.90
15131;DHT22;7666;50.920;4.628;2022-12-29T15:37:26;8.60;99.90
15131;DHT22;7666;50.920;4.628;2022-12-29T15:40:26;8.60;99.90
15131;DHT22;7666;50.920;4.628;2022-12-29T15:43:23;8.60;99.90
15131;DHT22;7666;50.920;4.628;2022-12-29T15:46:12;8.50;99.90
15131;DHT22;7666;50.920;4.628;2022-12-29T15:48:58;8.50;99.90
15131;DHT22;7666;50.920;4.628;2022-12-29T15:51:44;8.50;99.90
15131;DHT22;7666;50.920;4.628;2022-12-29T15:54:31;8.50;99.90
15131;DHT22;7666;50.920;4.628;2022-12-29T15:57:23;8.50;99.90
15131;DHT22;7666;50.920;4.628;2022-12-29T16:00:24;8.40;99.90
15131;DHT22;7666;50.920;4.628;2022-12-29T16:03:13;8.40;99.90
15131;DHT22;7666;50.920;4.628;2022-12-29T16:06:24;8.50;99.90
15131;DHT22;7666;50.920;4.628;2022-12-29T16:09:27;8.50;99.90
15131;DHT22;7666;50.920;4.628;2022-12-29T16:12:20;8.50;99.90
15131;DHT22;7666;50.920;4.628;2022-12-29T16:15:12;8.60;99.90
15131;DHT22;7666;50.920;4.628;2022-12-29T16:17:59;8.50;99.90
15131;DHT22;7666;50.920;4.628;2022-12-29T16:20:45;8.50;99.90
15131;DHT22;7666;50.920;4.628;2022-12-29T16:23:32;8.50;99.90
15131;DHT22;7666;50.920;4.628;2022-12-29T16:26:23;8.50;99.90
15131;DHT22;7666;50.920;4.628;2022-12-29T16:29:12;8.50;99.90
15131;DHT22;7666;50.920;4.628;2022-12-29T16:32:00;8.40;99.90
15131;DHT22;7666;50.920;4.628;2022-12-29T16:34:48;8.40;99.90
15131;DHT22;7666;50.920;4.628;2022-12-29T16:37:35;8.30;99.90
15131;DHT22;7666;50.920;4.628;2022-12-29T16:40:28;8.30;99.90
15131;DHT22;7666;50.920;4.628;2022-12-29T16:43:33;8.30;99.90
15131;DHT22;7666;50.920;4.628;2022-12-29T16:46:27;8.30;99.90
15131;DHT22;7666;50.920;4.628;2022-12-29T16:49:16;8.30;99.90
15131;DHT22;7666;50.920;4.628;2022-12-29T16:55:00;8.30;99.90
15131;DHT22;7666;50.920;4.628;2022-12-29T16:57:51;8.20;99.90
15131;DHT22;7666;50.920;4.628;2022-12-29T17:00:39;8.20;99.90
15131;DHT22;7666;50.920;4.628;2022-12-29T17:03:32;8.20;99.90
15131;DHT22;7666;50.920;4.628;2022-12-29T17:06:21;8.20;99.90
15131;DHT22;7666;50.920;4.628;2022-12-29T17:09:22;8.10;99.90
15131;DHT22;7666;50.920;4.628;2022-12-29T17:12:11;8.10;99.90
15131;DHT22;7666;50.920;4.628;2022-12-29T17:15:00;8.10;99.90
15131;DHT22;7666;50.920;4.628;2022-12-29T17:17:48;8.10;99.90
15131;DHT22;7666;50.920;4.628;2022-12-29T17:20:35;8.10;99.90
15131;DHT22;7666;50.920;4.628;2022-12-29T17:23:21;8.10;99.90
15131;DHT22;7666;50.920;4.628;2022-12-29T17:26:07;8.10;99.90
15131;DHT22;7666;50.920;4.628;2022-12-29T17:28:53;8.10;99.90
15131;DHT22;7666;50.920;4.628;2022-12-29T17:31:39;8.10;99.90
15131;DHT22;7666;50.920;4.628;2022-12-29T17:34:25;8.10;99.90
15131;DHT22;7666;50.920;4.628;2022-12-29T17:37:33;8.20;99.90
15131;DHT22;7666;50.920;4.628;2022-12-29T17:40:22;8.20;99.90
15131;DHT22;7666;50.920;4.628;2022-12-29T17:43:13;8.20;99.90
15131;DHT22;7666;50.920;4.628;2022-12-29T17:45:59;8.20;99.90
15131;DHT22;7666;50.920;4.628;2022-12-29T17:48:45;8.20;99.90
15131;DHT22;7666;50.920;4.628;2022-12-29T17:51:31;8.20;99.90
15131;DHT22;7666;50.920;4.628;2022-12-29T17:54:22;8.20;99.90
15131;DHT22;7666;50.920;4.628;2022-12-29T17:57:14;8.20;99.90
15131;DHT22;7666;50.920;4.628;2022-12-29T18:00:01;8.20;99.90
15131;DHT22;7666;50.920;4.628;2022-12-29T18:02:48;8.30;99.90
15131;DHT22;7666;50.920;4.628;2022-12-29T18:05:34;8.30;99.90
15131;DHT22;7666;50.920;4.628;2022-12-29T18:08:20;8.30;99.90
15131;DHT22;7666;50.920;4.628;2022-12-29T18:11:24;8.30;99.90
15131;DHT22;7666;50.920;4.628;2022-12-29T18:14:12;8.30;99.90
15131;DHT22;7666;50.920;4.628;2022-12-29T18:16:59;8.30;99.90
15131;DHT22;7666;50.920;4.628;2022-12-29T18:19:45;8.30;99.90
15131;DHT22;7666;50.920;4.628;2022-12-29T18:22:31;8.30;99.90
15131;DHT22;7666;50.920;4.628;2022-12-29T18:28:18;8.20;99.90
15131;DHT22;7666;50.920;4.628;2022-12-29T18:31:15;8.20;99.90
15131;DHT22;7666;50.920;4.628;2022-12-29T18:34:11;8.20;99.90
15131;DHT22;7666;50.920;4.628;2022-12-29T18:36:58;8.20;99.90
15131;DHT22;7666;50.920;4.628;2022-12-29T18:39:44;8.20;99.90
15131;DHT22;7666;50.920;4.628;2022-12-29T18:42:30;8.20;99.90
15131;DHT22;7666;50.920;4.628;2022-12-29T18:45:18;8.10;99.90
15131;DHT22;7666;50.920;4.628;2022-12-29T18:48:05;8.20;99.90
15131;DHT22;7666;50.920;4.628;2022-12-29T18:50:51;8.20;99.90
15131;DHT22;7666;50.920;4.628;2022-12-29T18:53:38;8.20;99.90
15131;DHT22;7666;50.920;4.628;2022-12-29T18:56:23;8.30;99.90
15131;DHT22;7666;50.920;4.628;2022-12-29T18:59:09;8.30;99.90
15131;DHT22;7666;50.920;4.628;2022-12-29T19:01:55;8.30;99.90
15131;DHT22;7666;50.920;4.628;2022-12-29T19:04:41;8.30;99.90
15131;DHT22;7666;50.920;4.628;2022-12-29T19:07:27;8.30;99.90
15131;DHT22;7666;50.920;4.628;2022-12-29T19:10:14;8.30;99.90
15131;DHT22;7666;50.920;4.628;2022-12-29T19:13:00;8.30;99.90
15131;DHT22;7666;50.920;4.628;2022-12-29T19:15:47;8.30;99.90
15131;DHT22;7666;50.920;4.628;2022-12-29T19:18:33;8.30;99.90
15131;DHT22;7666;50.920;4.628;2022-12-29T19:21:20;8.30;99.90
15131;DHT22;7666;50.920;4.628;2022-12-29T19:24:06;8.30;99.90
15131;DHT22;7666;50.920;4.628;2022-12-29T19:26:52;8.20;99.90
15131;DHT22;7666;50.920;4.628;2022-12-29T19:29:38;8.20;99.90
15131;DHT22;7666;50.920;4.628;2022-12-29T19:32:24;8.20;99.90
15131;DHT22;7666;50.920;4.628;2022-12-29T19:35:10;8.20;99.90
15131;DHT22;7666;50.920;4.628;2022-12-29T19:37:56;8.30;99.90
15131;DHT22;7666;50.920;4.628;2022-12-29T19:40:48;8.30;99.90
15131;DHT22;7666;50.920;4.628;2022-12-29T19:43:35;8.30;99.90
15131;DHT22;7666;50.920;4.628;2022-12-29T19:46:21;8.20;99.90
15131;DHT22;7666;50.920;4.628;2022-12-29T19:49:08;8.20;99.90
15131;DHT22;7666;50.920;4.628;2022-12-29T19:51:53;8.20;99.90
15131;DHT22;7666;50.920;4.628;2022-12-29T19:54:39;8.30;99.90
15131;DHT22;7666;50.920;4.628;2022-12-29T19:57:25;8.30;99.90
15131;DHT22;7666;50.920;4.628;2022-12-29T20:00:12;8.20;99.90
15131;DHT22;7666;50.920;4.628;2022-12-29T20:02:58;8.30;99.90
15131;DHT22;7666;50.920;4.628;2022-12-29T20:05:48;8.30;99.90
15131;DHT22;7666;50.920;4.628;2022-12-29T20:08:36;8.30;99.90
15131;DHT22;7666;50.920;4.628;2022-12-29T20:11:23;8.30;99.90
15131;DHT22;7666;50.920;4.628;2022-12-29T20:14:09;8.30;99.90
15131;DHT22;7666;50.920;4.628;2022-12-29T20:16:55;8.30;99.90